createdAt,value
2019-01-17T00:00:23.788Z,97856.36
2019-01-17T00:01:28.774Z,97853.03
2019-01-17T00:02:42.635Z,97857.13
2019-01-17T00:03:50.045Z,97862.03
2019-01-17T00:05:12.881Z,97856.98
2019-01-17T00:06:17.821Z,97867.48
2019-01-17T00:07:39.099Z,97863.39
2019-01-17T00:08:44.029Z,97859.56
2019-01-17T00:09:51.457Z,97868.39
2019-01-17T00:11:05.410Z,97866.17
2019-01-17T00:12:25.308Z,97865.54
2019-01-17T00:13:30.231Z,97863.34
2019-01-17T00:14:43.944Z,97866.59
2019-01-17T00:15:48.898Z,97866.59
2019-01-17T00:17:10.049Z,97864.08
2019-01-17T00:18:31.277Z,97865.23
2019-01-17T00:19:42.013Z,97866.77
2019-01-17T00:20:46.933Z,97862.45
2019-01-17T00:21:55.076Z,97865.36
2019-01-17T00:23:15.882Z,97872.18
2019-01-17T00:24:26.572Z,97866.51
2019-01-17T00:25:34.747Z,97871.58
2019-01-17T00:26:42.452Z,97874.03
2019-01-17T00:27:56.608Z,97876.95
2019-01-17T00:29:03.989Z,97876.52
2019-01-17T00:30:15.206Z,97877.32
2019-01-17T00:31:20.149Z,97877.72
2019-01-17T00:32:27.543Z,97879.12
2019-01-17T00:33:32.497Z,97875.20
2019-01-17T00:34:52.547Z,97877.25
2019-01-17T00:35:57.465Z,97875.17
2019-01-17T00:37:10.964Z,97876.41
2019-01-17T00:38:21.927Z,97884.33
2019-01-17T00:39:35.775Z,97877.79
2019-01-17T00:40:40.705Z,97891.38
2019-01-17T00:42:00.666Z,97891.67
2019-01-17T00:43:05.597Z,97891.76
2019-01-17T00:44:13.145Z,97889.49
2019-01-17T00:45:18.095Z,97892.55
2019-01-17T00:46:41.027Z,97887.22
2019-01-17T00:47:48.730Z,97892.63
2019-01-17T00:48:59.214Z,97889.99
2019-01-17T00:50:22.023Z,97896.14
2019-01-17T00:51:26.995Z,97891.42
2019-01-17T00:52:34.608Z,97891.50
2019-01-17T00:53:45.605Z,97894.02
2019-01-17T00:54:52.977Z,97899.63
2019-01-17T00:56:09.859Z,97894.30
2019-01-17T01:00:23.759Z,97897.27
2019-01-17T01:01:45.069Z,97893.06
2019-01-17T01:02:52.843Z,97891.41
2019-01-17T01:03:57.810Z,97896.91
2019-01-17T01:05:17.967Z,97890.98
2019-01-17T01:06:40.880Z,97897.86
2019-01-17T01:07:51.324Z,97897.50
2019-01-17T01:08:59.117Z,97898.93
2019-01-17T01:10:04.074Z,97902.98
2019-01-17T01:11:09.348Z,97899.69
2019-01-17T01:12:14.612Z,97902.30
2019-01-17T01:13:22.456Z,97901.72
2019-01-17T01:14:36.254Z,97900.92
2019-01-17T01:15:57.987Z,97906.64
2019-01-17T01:17:05.370Z,97899.30
2019-01-17T01:18:10.353Z,97898.17
2019-01-17T01:19:15.252Z,97899.94
2019-01-17T01:20:32.042Z,97899.73
2019-01-17T01:21:39.923Z,97903.46
2019-01-17T01:23:03.156Z,97901.84
2019-01-17T01:24:16.953Z,97904.09
2019-01-17T01:25:33.991Z,97901.42
2019-01-17T01:26:41.351Z,97899.30
2019-01-17T01:28:04.377Z,97898.87
2019-01-17T01:29:09.308Z,97895.73
2019-01-17T01:30:19.363Z,97901.23
2019-01-17T01:31:26.987Z,97893.52
2019-01-17T01:32:34.666Z,97893.14
2019-01-17T01:33:51.517Z,97893.70
2019-01-17T01:34:59.288Z,97890.51
2019-01-17T01:36:07.028Z,97884.98
2019-01-17T01:37:12.032Z,97884.67
2019-01-17T01:38:33.505Z,97886.59
2019-01-17T01:39:38.458Z,97882.66
2019-01-17T01:40:59.582Z,97881.94
2019-01-17T01:42:20.859Z,97883.55
2019-01-17T01:43:25.788Z,97881.70
2019-01-17T01:44:46.892Z,97880.19
2019-01-17T01:46:00.991Z,97885.31
2019-01-17T01:47:08.580Z,97878.89
2019-01-17T01:48:28.627Z,97882.84
2019-01-17T01:49:42.710Z,97883.19
2019-01-17T01:51:05.693Z,97877.16
2019-01-17T01:52:13.249Z,97874.36
2019-01-17T01:53:16.537Z,97873.59
2019-01-17T01:54:22.072Z,97880.42
2019-01-17T01:55:24.840Z,97873.09
2019-01-17T01:56:28.159Z,97874.59
2019-01-17T01:57:31.439Z,97879.81
2019-01-17T01:58:34.726Z,97878.39
2019-01-17T01:59:38.005Z,97877.28
2019-01-17T02:00:41.292Z,97879.59
2019-01-17T02:01:44.691Z,97874.28
2019-01-17T02:02:47.979Z,97878.16
2019-01-17T02:03:51.256Z,97873.75
2019-01-17T02:04:54.541Z,97875.73
2019-01-17T02:05:57.896Z,97870.52
2019-01-17T02:07:01.287Z,97871.82
2019-01-17T02:08:04.927Z,97872.35
2019-01-17T02:09:08.449Z,97870.12
2019-01-17T02:10:12.114Z,97873.50
2019-01-17T02:11:15.402Z,97876.23
2019-01-17T02:12:19.090Z,97872.81
2019-01-17T02:13:22.375Z,97871.25
2019-01-17T02:14:25.660Z,97868.64
2019-01-17T02:15:28.990Z,97867.06
2019-01-17T02:16:32.301Z,97866.75
2019-01-17T02:17:35.709Z,97864.25
2019-01-17T02:18:39.059Z,97863.91
2019-01-17T02:19:42.829Z,97864.14
2019-01-17T02:20:46.116Z,97853.89
2019-01-17T02:21:49.405Z,97854.39
2019-01-17T02:22:52.733Z,97855.70
2019-01-17T02:23:56.031Z,97855.30
2019-01-17T02:24:59.889Z,97854.58
2019-01-17T02:26:03.285Z,97856.88
2019-01-17T02:27:06.569Z,97850.86
2019-01-17T02:28:09.884Z,97845.31
2019-01-17T02:29:13.170Z,97846.35
2019-01-17T02:30:16.541Z,97851.89
2019-01-17T02:31:19.828Z,97854.70
2019-01-17T02:32:23.110Z,97859.41
2019-01-17T02:33:26.476Z,97856.19
2019-01-17T02:34:29.767Z,97845.63
2019-01-17T02:35:33.064Z,97849.16
2019-01-17T02:36:36.429Z,97847.74
2019-01-17T02:37:39.726Z,97842.70
2019-01-17T02:38:43.046Z,97848.44
2019-01-17T02:39:46.340Z,97842.83
2019-01-17T02:40:49.633Z,97848.25
2019-01-17T02:41:53.313Z,97853.69
2019-01-17T02:42:56.604Z,97849.47
2019-01-17T02:43:59.915Z,97850.08
2019-01-17T02:45:03.269Z,97851.89
2019-01-17T02:46:06.926Z,97843.44
2019-01-17T02:47:10.285Z,97843.98
2019-01-17T02:48:13.573Z,97848.28
2019-01-17T02:49:16.901Z,97842.63
2019-01-17T02:50:20.185Z,97844.86
2019-01-17T02:51:23.464Z,97845.67
2019-01-17T02:52:27.144Z,97839.02
2019-01-17T02:53:30.516Z,97840.33
2019-01-17T02:54:35.821Z,97838.83
2019-01-17T02:55:39.398Z,97831.31
2019-01-17T02:56:42.671Z,97832.61
2019-01-17T02:57:45.955Z,97828.27
2019-01-17T02:58:49.248Z,97828.45
2019-01-17T02:59:52.627Z,97825.42
2019-01-17T03:00:56.032Z,97825.23
2019-01-17T03:01:59.301Z,97834.06
2019-01-17T03:03:02.943Z,97829.56
2019-01-17T03:04:06.236Z,97823.42
2019-01-17T03:05:10.229Z,97829.65
2019-01-17T03:06:13.594Z,97825.42
2019-01-17T03:07:16.876Z,97830.65
2019-01-17T03:08:20.168Z,97830.27
2019-01-17T03:09:23.611Z,97824.26
2019-01-17T03:10:27.020Z,97828.06
2019-01-17T03:11:30.297Z,97831.67
2019-01-17T03:12:33.585Z,97830.59
2019-01-17T03:13:36.864Z,97838.31
2019-01-17T03:14:40.151Z,97831.98
2019-01-17T03:15:43.472Z,97834.28
2019-01-17T03:16:46.769Z,97834.09
2019-01-17T03:17:50.056Z,97836.80
2019-01-17T03:18:53.349Z,97835.59
2019-01-17T03:19:56.634Z,97832.79
2019-01-17T03:20:59.939Z,97832.79
2019-01-17T03:22:03.293Z,97837.09
2019-01-17T03:23:06.582Z,97830.87
2019-01-17T03:24:09.874Z,97826.27
2019-01-17T03:25:13.167Z,97837.70
2019-01-17T03:26:16.488Z,97828.48
2019-01-17T03:27:19.976Z,97834.88
2019-01-17T03:28:23.258Z,97827.59
2019-01-17T03:29:26.551Z,97830.70
2019-01-17T03:30:29.836Z,97828.37
2019-01-17T03:31:33.165Z,97827.95
2019-01-17T03:32:36.449Z,97825.65
2019-01-17T03:33:39.734Z,97824.15
2019-01-17T03:34:43.023Z,97823.84
2019-01-17T03:35:46.719Z,97825.38
2019-01-17T03:36:50.042Z,97829.37
2019-01-17T03:37:53.331Z,97829.67
2019-01-17T03:38:56.621Z,97825.65
2019-01-17T03:39:59.911Z,97824.56
2019-01-17T03:41:03.205Z,97826.77
2019-01-17T03:42:06.570Z,97826.95
2019-01-17T03:43:09.868Z,97822.73
2019-01-17T03:44:13.162Z,97822.42
2019-01-17T03:45:16.449Z,97822.04
2019-01-17T03:46:19.732Z,97824.77
2019-01-17T03:47:23.083Z,97822.66
2019-01-17T03:48:26.363Z,97821.34
2019-01-17T03:49:30.015Z,97824.06
2019-01-17T03:50:33.300Z,97817.42
2019-01-17T03:51:36.593Z,97820.14
2019-01-17T03:52:39.940Z,97817.02
2019-01-17T03:53:43.231Z,97820.63
2019-01-17T03:54:52.004Z,97818.31
2019-01-17T03:55:51.697Z,97822.95
2019-01-17T03:56:54.980Z,97820.45
2019-01-17T03:57:58.271Z,97815.84
2019-01-17T03:59:01.567Z,97818.84
2019-01-17T04:00:08.108Z,97816.81
2019-01-17T04:01:11.405Z,97817.22
2019-01-17T04:02:14.905Z,97819.95
2019-01-17T04:03:18.652Z,97817.83
2019-01-17T04:04:22.034Z,97818.42
2019-01-17T04:05:25.328Z,97822.14
2019-01-17T04:06:28.630Z,97823.25
2019-01-17T04:07:31.901Z,97824.25
2019-01-17T04:08:35.227Z,97827.06
2019-01-17T04:09:38.919Z,97827.77
2019-01-17T04:10:42.203Z,97826.27
2019-01-17T04:11:45.482Z,97829.48
2019-01-17T04:12:48.774Z,97828.05
2019-01-17T04:13:52.087Z,97828.37
2019-01-17T04:14:55.443Z,97830.70
2019-01-17T04:15:59.031Z,97831.09
2019-01-17T04:17:02.319Z,97829.98
2019-01-17T04:18:05.609Z,97829.37
2019-01-17T04:19:08.925Z,97828.27
2019-01-17T04:20:16.110Z,97829.48
2019-01-17T04:21:19.386Z,97832.87
2019-01-17T04:22:22.775Z,97831.06
2019-01-17T04:23:26.089Z,97828.06
2019-01-17T04:24:29.423Z,97822.86
2019-01-17T04:25:32.997Z,97821.65
2019-01-17T04:26:36.291Z,97832.91
2019-01-17T04:27:39.586Z,97826.66
2019-01-17T04:28:42.874Z,97826.46
2019-01-17T04:29:46.197Z,97829.69
2019-01-17T04:30:49.496Z,97826.46
2019-01-17T04:31:52.773Z,97827.77
2019-01-17T04:32:56.064Z,97825.27
2019-01-17T04:33:59.358Z,97826.86
2019-01-17T04:35:02.728Z,97827.69
2019-01-17T04:36:06.020Z,97826.96
2019-01-17T04:37:09.311Z,97823.05
2019-01-17T04:38:12.606Z,97829.08
2019-01-17T04:39:15.925Z,97828.28
2019-01-17T04:40:19.258Z,97826.67
2019-01-17T04:41:22.546Z,97829.67
2019-01-17T04:42:25.837Z,97832.09
2019-01-17T04:43:29.126Z,97838.09
2019-01-17T04:44:32.421Z,97831.27
2019-01-17T04:45:35.818Z,97839.40
2019-01-17T04:46:39.114Z,97841.90
2019-01-17T04:47:42.413Z,97838.48
2019-01-17T04:48:45.693Z,97838.48
2019-01-17T04:49:48.985Z,97838.14
2019-01-17T04:50:52.312Z,97840.01
2019-01-17T04:51:55.616Z,97842.14
2019-01-17T04:52:58.922Z,97842.05
2019-01-17T04:54:02.212Z,97841.20
2019-01-17T04:55:07.249Z,97838.25
2019-01-17T04:56:10.577Z,97842.66
2019-01-17T04:57:13.937Z,97834.39
2019-01-17T04:58:17.231Z,97840.89
2019-01-17T04:59:20.685Z,97850.41
2019-01-17T05:00:23.980Z,97848.03
2019-01-17T05:01:27.322Z,97849.23
2019-01-17T05:02:30.620Z,97852.08
2019-01-17T05:03:34.403Z,97858.92
2019-01-17T05:04:37.760Z,97853.34
2019-01-17T05:05:41.142Z,97856.56
2019-01-17T05:06:44.514Z,97855.56
2019-01-17T05:07:47.858Z,97862.61
2019-01-17T05:08:51.172Z,97862.80
2019-01-17T05:09:54.556Z,97864.31
2019-01-17T05:10:57.846Z,97865.80
2019-01-17T05:12:01.145Z,97868.71
2019-01-17T05:13:04.443Z,97866.52
2019-01-17T05:14:08.671Z,97871.49
2019-01-17T05:15:12.236Z,97874.89
2019-01-17T05:16:15.556Z,97880.92
2019-01-17T05:17:18.881Z,97879.09
2019-01-17T05:18:22.172Z,97883.00
2019-01-17T05:19:27.829Z,97878.67
2019-01-17T05:20:31.110Z,97883.98
2019-01-17T05:21:34.406Z,97881.86
2019-01-17T05:22:37.768Z,97890.98
2019-01-17T05:23:41.101Z,97884.38
2019-01-17T05:24:52.144Z,97889.03
2019-01-17T05:25:55.622Z,97893.94
2019-01-17T05:26:59.072Z,97893.34
2019-01-17T05:28:02.352Z,97893.75
2019-01-17T05:29:05.651Z,97897.66
2019-01-17T05:30:17.789Z,97895.55
2019-01-17T05:31:21.108Z,97895.55
2019-01-17T05:32:24.465Z,97901.38
2019-01-17T05:33:27.755Z,97903.31
2019-01-17T05:34:31.050Z,97907.00
2019-01-17T05:35:34.405Z,97907.50
2019-01-17T05:36:37.859Z,97907.06
2019-01-17T05:37:41.148Z,97908.09
2019-01-17T05:38:44.504Z,97904.63
2019-01-17T05:39:47.792Z,97913.53
2019-01-17T05:40:51.070Z,97914.80
2019-01-17T05:41:54.352Z,97913.63
2019-01-17T05:42:57.709Z,97915.61
2019-01-17T05:44:01.033Z,97913.27
2019-01-17T05:45:05.473Z,97911.55
2019-01-17T05:46:08.802Z,97908.87
2019-01-17T05:47:12.137Z,97917.08
2019-01-17T05:48:15.509Z,97909.03
2019-01-17T05:49:18.863Z,97913.21
2019-01-17T05:50:22.261Z,97911.41
2019-01-17T05:51:25.683Z,97913.67
2019-01-17T05:52:28.990Z,97913.31
2019-01-17T05:53:32.355Z,97909.50
2019-01-17T05:54:35.718Z,97906.97
2019-01-17T05:55:39.021Z,97908.36
2019-01-17T05:56:42.392Z,97908.52
2019-01-17T05:57:45.793Z,97913.86
2019-01-17T05:58:49.158Z,97912.93
2019-01-17T05:59:54.103Z,97909.11
2019-01-17T06:00:57.409Z,97912.58
2019-01-17T06:02:00.703Z,97914.66
2019-01-17T06:03:04.242Z,97914.11
2019-01-17T06:04:07.531Z,97919.32
2019-01-17T06:05:11.093Z,97916.31
2019-01-17T06:06:14.386Z,97915.26
2019-01-17T06:07:17.668Z,97909.39
2019-01-17T06:08:21.024Z,97910.19
2019-01-17T06:09:24.419Z,97908.09
2019-01-17T06:10:27.780Z,97905.27
2019-01-17T06:11:31.073Z,97904.43
2019-01-17T06:12:34.837Z,97910.41
2019-01-17T06:13:38.263Z,97905.48
2019-01-17T06:14:41.543Z,97907.96
2019-01-17T06:15:45.279Z,97912.31
2019-01-17T06:16:48.624Z,97908.28
2019-01-17T06:17:51.976Z,97908.41
2019-01-17T06:18:55.331Z,97905.31
2019-01-17T06:19:58.618Z,97912.31
2019-01-17T06:21:01.908Z,97910.97
2019-01-17T06:22:05.248Z,97907.22
2019-01-17T06:23:08.579Z,97903.84
2019-01-17T06:24:11.997Z,97904.86
2019-01-17T06:25:15.416Z,97909.30
2019-01-17T06:26:19.058Z,97913.02
2019-01-17T06:27:22.360Z,97904.30
2019-01-17T06:28:25.778Z,97911.91
2019-01-17T06:29:29.091Z,97910.91
2019-01-17T06:30:32.376Z,97912.42
2019-01-17T06:31:35.735Z,97910.13
2019-01-17T06:32:43.449Z,97910.34
2019-01-17T06:33:46.909Z,97905.81
2019-01-17T06:34:50.244Z,97911.34
2019-01-17T06:35:53.603Z,97913.63
2019-01-17T06:36:56.991Z,97908.62
2019-01-17T06:38:00.273Z,97905.92
2019-01-17T06:39:04.906Z,97908.32
2019-01-17T06:40:11.492Z,97906.49
2019-01-17T06:41:14.793Z,97905.91
2019-01-17T06:42:18.161Z,97908.01
2019-01-17T06:43:21.464Z,97912.13
2019-01-17T06:44:25.122Z,97913.16
2019-01-17T06:45:28.483Z,97911.75
2019-01-17T06:46:32.094Z,97911.34
2019-01-17T06:47:35.393Z,97910.56
2019-01-17T06:48:38.770Z,97913.28
2019-01-17T06:49:42.067Z,97910.36
2019-01-17T06:50:45.393Z,97913.89
2019-01-17T06:51:48.760Z,97905.77
2019-01-17T06:52:52.143Z,97905.66
2019-01-17T06:53:55.442Z,97908.98
2019-01-17T06:54:58.732Z,97914.41
2019-01-17T06:56:02.052Z,97909.38
2019-01-17T06:57:05.344Z,97916.42
2019-01-17T06:58:08.702Z,97915.59
2019-01-17T06:59:11.992Z,97918.78
2019-01-17T07:00:16.829Z,97916.29
2019-01-17T07:01:20.211Z,97917.19
2019-01-17T07:02:23.652Z,97919.58
2019-01-17T07:03:26.947Z,97921.69
2019-01-17T07:04:30.350Z,97919.97
2019-01-17T07:05:33.718Z,97916.92
2019-01-17T07:06:37.121Z,97923.07
2019-01-17T07:07:40.492Z,97920.34
2019-01-17T07:08:43.854Z,97922.03
2019-01-17T07:09:47.151Z,97920.89
2019-01-17T07:10:50.458Z,97922.47
2019-01-17T07:11:53.794Z,97917.84
2019-01-17T07:12:57.205Z,97916.11
2019-01-17T07:14:00.883Z,97920.03
2019-01-17T07:15:06.133Z,97915.71
2019-01-17T07:16:09.414Z,97917.02
2019-01-17T07:17:12.717Z,97921.70
2019-01-17T07:18:16.016Z,97915.77
2019-01-17T07:19:19.375Z,97924.91
2019-01-17T07:20:22.744Z,97919.27
2019-01-17T07:21:26.390Z,97921.44
2019-01-17T07:22:29.982Z,97919.50
2019-01-17T07:23:33.574Z,97923.91
2019-01-17T07:24:36.866Z,97921.89
2019-01-17T07:25:41.161Z,97925.69
2019-01-17T07:26:44.582Z,97927.27
2019-01-17T07:27:47.902Z,97918.86
2019-01-17T07:28:51.211Z,97925.34
2019-01-17T07:29:54.511Z,97926.16
2019-01-17T07:30:58.118Z,97920.55
2019-01-17T07:32:01.474Z,97929.52
2019-01-17T07:33:04.821Z,97927.53
2019-01-17T07:34:08.120Z,97932.73
2019-01-17T07:35:11.732Z,97922.16
2019-01-17T07:36:15.071Z,97922.42
2019-01-17T07:37:18.366Z,97924.71
2019-01-17T07:38:21.685Z,97929.91
2019-01-17T07:39:24.974Z,97931.09
2019-01-17T07:40:28.271Z,97931.16
2019-01-17T07:41:31.654Z,97931.72
2019-01-17T07:42:35.162Z,97932.52
2019-01-17T07:43:38.453Z,97934.67
2019-01-17T07:44:41.742Z,97931.92
2019-01-17T07:45:45.129Z,97930.59
2019-01-17T07:46:48.419Z,97929.47
2019-01-17T07:47:51.800Z,97923.41
2019-01-17T07:48:55.199Z,97930.09
2019-01-17T07:49:58.573Z,97927.27
2019-01-17T07:51:01.878Z,97928.64
2019-01-17T07:52:05.258Z,97926.89
2019-01-17T07:53:08.543Z,97930.70
2019-01-17T07:54:11.886Z,97933.84
2019-01-17T07:55:15.186Z,97934.55
2019-01-17T07:56:18.484Z,97930.30
2019-01-17T07:57:21.866Z,97928.99
2019-01-17T07:58:25.151Z,97931.84
2019-01-17T07:59:28.476Z,97932.05
2019-01-17T08:00:31.830Z,97929.57
2019-01-17T08:01:35.475Z,97927.59
2019-01-17T08:02:38.772Z,97930.44
2019-01-17T08:03:42.158Z,97932.13
2019-01-17T08:04:45.522Z,97931.20
2019-01-17T08:05:48.811Z,97929.64
2019-01-17T08:06:56.688Z,97929.45
2019-01-17T08:07:57.256Z,97933.91
2019-01-17T08:09:01.150Z,97930.40
2019-01-17T08:10:08.026Z,97929.45
2019-01-17T08:11:11.320Z,97924.08
2019-01-17T08:12:14.994Z,97929.55
2019-01-17T08:13:18.364Z,97922.16
2019-01-17T08:14:21.721Z,97919.06
2019-01-17T08:15:25.098Z,97917.35
2019-01-17T08:16:28.452Z,97916.39
2019-01-17T08:17:32.664Z,97917.80
2019-01-17T08:18:35.953Z,97911.48
2019-01-17T08:19:39.716Z,97914.41
2019-01-17T08:20:43.120Z,97910.48
2019-01-17T08:21:46.806Z,97914.06
2019-01-17T08:22:50.136Z,97915.46
2019-01-17T08:23:53.436Z,97909.69
2019-01-17T08:24:56.757Z,97912.75
2019-01-17T08:26:00.085Z,97913.36
2019-01-17T08:27:03.369Z,97908.74
2019-01-17T08:28:06.664Z,97908.38
2019-01-17T08:29:10.023Z,97911.19
2019-01-17T08:30:21.740Z,97913.59
2019-01-17T08:31:25.024Z,97915.20
2019-01-17T08:32:28.323Z,97912.45
2019-01-17T08:33:31.618Z,97914.07
2019-01-17T08:34:34.976Z,97918.78
2019-01-17T08:35:38.261Z,97920.28
2019-01-17T08:36:41.580Z,97913.70
2019-01-17T08:37:44.974Z,97917.02
2019-01-17T08:38:48.267Z,97914.75
2019-01-17T08:39:51.627Z,97915.48
2019-01-17T08:40:55.028Z,97912.70
2019-01-17T08:41:58.356Z,97913.62
2019-01-17T08:43:02.307Z,97915.04
2019-01-17T08:44:05.593Z,97912.70
2019-01-17T08:45:09.829Z,97908.11
2019-01-17T08:46:13.453Z,97910.38
2019-01-17T08:47:16.813Z,97913.72
2019-01-17T08:48:20.097Z,97914.00
2019-01-17T08:49:23.526Z,97908.05
2019-01-17T08:50:28.000Z,97909.47
2019-01-17T08:51:31.542Z,97913.30
2019-01-17T08:52:34.973Z,97906.23
2019-01-17T08:53:38.338Z,97909.17
2019-01-17T08:54:41.705Z,97902.73
2019-01-17T08:55:45.065Z,97906.22
2019-01-17T08:56:48.355Z,97903.84
2019-01-17T08:57:51.745Z,97901.17
2019-01-17T08:58:55.118Z,97895.61
2019-01-17T08:59:58.472Z,97895.09
2019-01-17T09:01:02.290Z,97894.83
2019-01-17T09:02:05.585Z,97885.99
2019-01-17T09:03:09.261Z,97891.28
2019-01-17T09:04:12.593Z,97883.09
2019-01-17T09:05:15.887Z,97885.50
2019-01-17T09:06:19.656Z,97887.30
2019-01-17T09:07:23.059Z,97885.95
2019-01-17T09:08:26.490Z,97885.48
2019-01-17T09:09:29.793Z,97881.94
2019-01-17T09:10:33.477Z,97881.55
2019-01-17T09:11:36.798Z,97878.74
2019-01-17T09:12:40.678Z,97878.24
2019-01-17T09:13:44.235Z,97873.86
2019-01-17T09:14:47.980Z,97875.31
2019-01-17T09:15:51.266Z,97872.75
2019-01-17T09:16:54.547Z,97875.53
2019-01-17T09:17:57.828Z,97871.41
2019-01-17T09:19:02.009Z,97874.84
2019-01-17T09:20:08.554Z,97870.97
2019-01-17T09:21:11.921Z,97865.47
2019-01-17T09:22:15.342Z,97864.05
2019-01-17T09:23:18.624Z,97862.02
2019-01-17T09:24:21.909Z,97858.77
2019-01-17T09:25:25.227Z,97858.03
2019-01-17T09:26:28.510Z,97855.62
2019-01-17T09:27:32.161Z,97862.16
2019-01-17T09:28:35.551Z,97857.23
2019-01-17T09:29:38.869Z,97855.48
2019-01-17T09:30:42.155Z,97845.95
2019-01-17T09:31:45.501Z,97845.91
2019-01-17T09:32:48.786Z,97844.70
2019-01-17T09:33:52.103Z,97845.43
2019-01-17T09:34:55.380Z,97844.09
2019-01-17T09:35:58.658Z,97837.94
2019-01-17T09:37:02.372Z,97831.98
2019-01-17T09:38:05.749Z,97831.14
2019-01-17T09:39:09.331Z,97818.94
2019-01-17T09:40:20.141Z,97825.92
2019-01-17T09:41:23.509Z,97817.02
2019-01-17T09:42:26.940Z,97819.06
2019-01-17T09:43:30.299Z,97811.25
2019-01-17T09:44:33.584Z,97809.59
2019-01-17T09:45:36.948Z,97814.77
2019-01-17T09:46:42.869Z,97813.91
2019-01-17T09:47:58.966Z,97810.84
2019-01-17T09:49:02.235Z,97805.56
2019-01-17T09:50:08.827Z,97803.88
2019-01-17T09:51:12.116Z,97801.53
2019-01-17T09:52:15.406Z,97799.11
2019-01-17T09:53:18.691Z,97799.52
2019-01-17T09:54:22.042Z,97791.63
2019-01-17T09:55:25.436Z,97793.53
2019-01-17T09:56:28.728Z,97791.17
2019-01-17T09:57:32.097Z,97793.59
2019-01-17T09:58:35.383Z,97794.09
2019-01-17T09:59:38.675Z,97801.78
2019-01-17T10:00:42.002Z,97788.28
2019-01-17T10:01:45.290Z,97787.62
2019-01-17T10:02:48.587Z,97788.58
2019-01-17T10:03:51.937Z,97786.19
2019-01-17T10:04:55.224Z,97787.14
2019-01-17T10:05:58.550Z,97781.77
2019-01-17T10:07:01.851Z,97782.71
2019-01-17T10:08:05.134Z,97778.38
2019-01-17T10:09:08.424Z,97774.53
2019-01-17T10:10:16.966Z,97771.40
2019-01-17T10:11:20.290Z,97765.84
2019-01-17T10:12:23.578Z,97772.33
2019-01-17T10:13:31.982Z,97774.95
2019-01-17T10:14:31.894Z,97769.44
2019-01-17T10:15:38.521Z,97770.08
2019-01-17T10:16:45.205Z,97764.89
2019-01-17T10:18:08.514Z,97760.77
2019-01-17T10:19:17.882Z,97762.81
2019-01-17T10:20:36.609Z,97756.72
2019-01-17T10:22:09.591Z,97759.58
2019-01-17T10:23:19.173Z,97757.48
2019-01-17T10:24:25.727Z,97751.99
2019-01-17T10:25:35.464Z,97743.00
2019-01-17T10:27:01.777Z,97749.52
2019-01-17T10:28:20.256Z,97746.38
2019-01-17T10:29:33.194Z,97736.66
2019-01-17T10:30:49.351Z,97736.66
2019-01-17T10:32:01.530Z,97740.83
2019-01-17T10:33:11.111Z,97734.59
2019-01-17T10:34:51.163Z,97731.23
2019-01-17T10:36:22.497Z,97733.15
2019-01-17T10:37:50.582Z,97729.64
2019-01-17T10:38:59.983Z,97715.45
2019-01-17T10:40:06.620Z,97724.24
2019-01-17T10:41:33.840Z,97721.06
2019-01-17T10:42:43.366Z,97721.06
2019-01-17T10:43:49.929Z,97716.45
2019-01-17T10:44:59.525Z,97703.37
2019-01-17T10:46:12.045Z,97711.23
2019-01-17T10:47:38.511Z,97711.23
2019-01-17T10:49:13.846Z,97709.49
2019-01-17T10:50:44.578Z,97705.16
2019-01-17T10:52:06.522Z,97700.09
2019-01-17T10:53:21.778Z,97697.56
2019-01-17T10:54:59.821Z,97698.36
2019-01-17T10:56:06.844Z,97697.77
2019-01-17T10:57:33.715Z,97692.14
2019-01-17T10:58:52.069Z,97692.89
2019-01-17T11:00:01.534Z,97689.64
2019-01-17T11:01:31.081Z,97682.54
2019-01-17T11:02:49.303Z,97666.21
2019-01-17T11:04:04.891Z,97666.21
2019-01-17T11:05:23.788Z,97675.89
2019-01-17T11:06:51.348Z,97672.19
2019-01-17T11:08:15.984Z,97667.07
2019-01-17T11:09:28.394Z,97667.07
2019-01-17T11:10:40.649Z,97671.06
2019-01-17T11:12:04.651Z,97669.77
2019-01-17T11:13:26.133Z,97664.28
2019-01-17T11:14:38.565Z,97664.28
2019-01-17T11:16:06.086Z,97660.87
2019-01-17T11:17:24.983Z,97663.51
2019-01-17T11:18:54.332Z,97648.86
2019-01-17T11:20:06.685Z,97648.86
2019-01-17T11:21:29.760Z,97651.69
2019-01-17T11:22:52.929Z,97651.69
2019-01-17T11:24:11.405Z,97649.33
2019-01-17T11:25:23.580Z,97649.33
2019-01-17T11:26:34.472Z,97648.08
2019-01-17T11:27:41.197Z,97645.27
2019-01-17T11:28:53.028Z,97641.21
2019-01-17T11:30:02.621Z,97646.44
2019-01-17T11:31:27.348Z,97638.08
2019-01-17T11:32:48.780Z,97640.22
2019-01-17T11:34:01.109Z,97628.05
2019-01-17T11:35:24.466Z,97632.39
2019-01-17T11:36:47.603Z,97625.94
2019-01-17T11:37:54.159Z,97626.39
2019-01-17T11:39:04.267Z,97625.83
2019-01-17T11:40:13.372Z,97616.41
2019-01-17T11:41:32.668Z,97619.31
2019-01-17T11:43:08.281Z,97610.31
2019-01-17T11:44:32.745Z,97612.47
2019-01-17T11:45:39.296Z,97609.56
2019-01-17T11:47:07.215Z,97601.42
2019-01-17T11:48:28.549Z,97602.33
2019-01-17T11:49:54.558Z,97597.91
2019-01-17T11:51:09.830Z,97597.05
2019-01-17T11:52:47.046Z,97596.36
2019-01-17T11:54:08.493Z,97597.94
2019-01-17T11:55:23.958Z,97598.28
2019-01-17T11:56:33.336Z,97588.77
2019-01-17T11:57:45.453Z,97587.09
2019-01-17T11:59:22.311Z,97584.77
2019-01-17T12:00:46.864Z,97588.37
2019-01-17T12:01:56.203Z,97583.88
2019-01-17T12:03:17.914Z,97577.47
2019-01-17T12:04:33.294Z,97576.14
2019-01-17T12:05:36.585Z,97579.62
2019-01-17T12:06:39.999Z,97576.59
2019-01-17T12:07:43.287Z,97580.97
2019-01-17T12:08:46.580Z,97572.75
2019-01-17T12:09:49.883Z,97564.63
2019-01-17T12:10:53.182Z,97566.16
2019-01-17T12:11:56.583Z,97564.61
2019-01-17T12:13:00.057Z,97565.23
2019-01-17T12:14:03.392Z,97566.46
2019-01-17T12:15:08.558Z,97568.70
2019-01-17T12:16:20.023Z,97550.47
2019-01-17T12:17:23.571Z,97520.35
2019-01-17T12:18:26.888Z,97556.54
2019-01-17T12:19:30.247Z,97560.17
2019-01-17T12:20:33.543Z,97559.05
2019-01-17T12:21:36.902Z,97560.39
2019-01-17T12:22:41.061Z,97556.11
2019-01-17T12:23:44.455Z,97558.82
2019-01-17T12:24:47.894Z,97555.85
2019-01-17T12:25:51.179Z,97553.93
2019-01-17T12:26:54.503Z,97555.41
2019-01-17T12:27:57.915Z,97557.13
2019-01-17T12:29:01.199Z,97559.05
2019-01-17T12:30:07.760Z,97552.95
2019-01-17T12:31:13.149Z,97553.75
2019-01-17T12:32:16.448Z,97556.45
2019-01-17T12:33:19.770Z,97556.91
2019-01-17T12:34:25.628Z,97550.95
2019-01-17T12:35:29.093Z,97552.53
2019-01-17T12:36:32.376Z,97546.34
2019-01-17T12:37:35.665Z,97549.73
2019-01-17T12:38:39.060Z,97545.53
2019-01-17T12:39:42.407Z,97545.53
2019-01-17T12:40:45.757Z,97549.14
2019-01-17T12:41:49.080Z,97547.23
2019-01-17T12:42:52.380Z,97548.91
2019-01-17T12:43:55.915Z,97541.05
2019-01-17T12:44:59.209Z,97539.59
2019-01-17T12:46:02.497Z,97536.29
2019-01-17T12:47:05.860Z,97537.41
2019-01-17T12:48:09.559Z,97536.71
2019-01-17T12:49:12.906Z,97538.81
2019-01-17T12:50:16.431Z,97535.23
2019-01-17T12:51:19.725Z,97533.19
2019-01-17T12:52:23.021Z,97535.34
2019-01-17T12:53:26.307Z,97530.52
2019-01-17T12:54:29.627Z,97528.02
2019-01-17T12:55:33.056Z,97529.27
2019-01-17T12:56:36.351Z,97529.27
2019-01-17T12:57:39.667Z,97534.30
2019-01-17T12:58:43.311Z,97532.07
2019-01-17T12:59:46.708Z,97537.92
2019-01-17T13:00:49.986Z,97535.34
2019-01-17T13:01:53.299Z,97529.80
2019-01-17T13:02:56.667Z,97527.12